createdAt,value
2023-05-19T00:01:25.165Z,99832.64
2023-05-19T00:06:31.674Z,99829.00
2023-05-19T00:11:36.421Z,99826.02
2023-05-19T00:16:38.770Z,99817.21
2023-05-19T00:21:40.604Z,99812.27
2023-05-19T00:26:42.426Z,99809.05
2023-05-19T00:31:44.743Z,99806.82
2023-05-19T00:36:46.869Z,99803.17
2023-05-19T00:41:49.036Z,99799.08
2023-05-19T00:46:50.860Z,99786.42
2023-05-19T00:51:53.171Z,99785.80
2023-05-19T00:56:57.040Z,99780.98
2023-05-19T01:01:58.840Z,99779.10
2023-05-19T01:07:00.861Z,99774.86
2023-05-19T01:12:02.786Z,99765.34
2023-05-19T01:17:17.279Z,99759.16
2023-05-19T01:22:54.918Z,99757.60
2023-05-19T01:28:21.500Z,99763.29
2023-05-19T01:33:24.596Z,99758.66
2023-05-19T01:38:29.422Z,99756.02
2023-05-19T01:43:33.730Z,99760.60
2023-05-19T01:48:36.628Z,99762.02
2023-05-19T01:53:38.495Z,99762.31
2023-05-19T01:58:47.205Z,99767.38
2023-05-19T02:03:52.034Z,99765.83
2023-05-19T02:09:12.098Z,99755.59
2023-05-19T02:14:19.911Z,99743.06
2023-05-19T02:19:28.098Z,99743.41
2023-05-19T02:24:30.104Z,99740.19
2023-05-19T02:29:34.052Z,99733.15
2023-05-19T02:34:35.762Z,99728.42
2023-05-19T02:39:40.037Z,99717.95
2023-05-19T02:44:41.756Z,99724.12
2023-05-19T02:49:44.275Z,99725.58
2023-05-19T02:54:46.228Z,99724.84
2023-05-19T02:59:48.061Z,99725.67
2023-05-19T03:04:49.924Z,99714.61
2023-05-19T03:09:52.663Z,99713.80
2023-05-19T03:14:54.337Z,99714.32
2023-05-19T03:19:56.063Z,99725.45
2023-05-19T03:24:58.557Z,99726.41
2023-05-19T03:30:00.337Z,99733.34
2023-05-19T03:35:02.100Z,99735.16
2023-05-19T03:40:05.728Z,99737.02
2023-05-19T03:45:09.949Z,99743.21
2023-05-19T03:50:11.836Z,99744.56
2023-05-19T03:55:37.428Z,99743.50
2023-05-19T04:00:39.028Z,99742.77
2023-05-19T04:05:40.943Z,99744.89
2023-05-19T04:10:42.767Z,99743.86
2023-05-19T04:15:44.703Z,99744.90
2023-05-19T04:20:46.650Z,99742.63
2023-05-19T04:25:49.631Z,99743.86
2023-05-19T04:30:51.614Z,99750.94
2023-05-19T04:35:53.702Z,99756.99
2023-05-19T04:40:56.372Z,99756.87
2023-05-19T04:45:58.917Z,99754.85
2023-05-19T04:51:03.972Z,99757.05
2023-05-19T04:56:06.392Z,99756.95
2023-05-19T05:01:09.690Z,99763.07
2023-05-19T05:06:12.109Z,99762.27
2023-05-19T05:11:14.281Z,99760.49
2023-05-19T05:16:16.691Z,99762.80
2023-05-19T05:21:18.827Z,99755.54
2023-05-19T05:26:23.287Z,99753.18
2023-05-19T05:31:27.069Z,99761.23
2023-05-19T05:36:29.048Z,99752.81
2023-05-19T05:41:35.229Z,99758.92
2023-05-19T05:46:40.561Z,99767.75
2023-05-19T05:51:48.432Z,99775.15
2023-05-19T05:56:57.028Z,99779.38
2023-05-19T06:01:59.601Z,99780.45
2023-05-19T06:07:01.927Z,99785.83
2023-05-19T06:12:07.990Z,99778.98
2023-05-19T06:17:14.390Z,99781.69
2023-05-19T06:22:16.206Z,99787.27
2023-05-19T06:27:18.950Z,99780.70
2023-05-19T06:32:21.449Z,99780.79
2023-05-19T06:37:23.910Z,99780.77
2023-05-19T06:42:25.787Z,99785.01
2023-05-19T06:47:42.524Z,99788.64
2023-05-19T06:52:44.706Z,99784.91
2023-05-19T06:57:47.744Z,99782.24
2023-05-19T07:02:50.107Z,99773.45
2023-05-19T07:07:52.180Z,99777.45
2023-05-19T07:12:58.156Z,99772.91
2023-05-19T07:18:02.303Z,99771.74
2023-05-19T07:23:05.426Z,99776.34
2023-05-19T07:28:07.513Z,99775.73
2023-05-19T07:33:09.219Z,99773.34
2023-05-19T07:38:11.480Z,99777.77
2023-05-19T07:43:13.307Z,99786.55
2023-05-19T07:48:15.073Z,99788.87
2023-05-19T07:53:16.962Z,99784.90
2023-05-19T07:58:19.923Z,99788.80
2023-05-19T08:03:23.628Z,99792.26
2023-05-19T08:08:25.672Z,99788.26
2023-05-19T08:13:27.596Z,99798.33
2023-05-19T08:18:29.477Z,99800.78
2023-05-19T08:23:31.957Z,99801.39
2023-05-19T08:28:33.952Z,99798.98
2023-05-19T08:33:35.801Z,99800.74
2023-05-19T08:38:37.644Z,99800.95
2023-05-19T08:43:39.977Z,99797.13
2023-05-19T08:48:44.293Z,99801.55
2023-05-19T08:53:53.757Z,99803.58
2023-05-19T08:59:00.291Z,99797.02
2023-05-19T09:04:03.440Z,99793.42
2023-05-19T09:09:06.356Z,99796.27
2023-05-19T09:14:08.177Z,99794.88
2023-05-19T09:19:17.203Z,99802.59
2023-05-19T09:24:19.154Z,99805.61
2023-05-19T09:29:20.918Z,99802.80
2023-05-19T09:34:24.765Z,99802.30
2023-05-19T09:39:26.862Z,99804.81
2023-05-19T09:44:32.809Z,99803.94
2023-05-19T09:49:34.585Z,99799.03
2023-05-19T09:54:37.390Z,99799.02
2023-05-19T09:59:40.833Z,99796.77
2023-05-19T10:04:43.093Z,99797.58
2023-05-19T10:09:46.116Z,99797.62
2023-05-19T10:14:48.750Z,99796.35
2023-05-19T10:19:52.560Z,99791.61
2023-05-19T10:24:56.044Z,99783.06
2023-05-19T10:30:02.569Z,99778.75
2023-05-19T10:35:26.221Z,99780.45
2023-05-19T10:40:33.233Z,99778.46
2023-05-19T10:45:45.398Z,99778.86
2023-05-19T10:50:47.650Z,99776.54
2023-05-19T10:55:56.480Z,99775.13
2023-05-19T11:01:01.604Z,99775.82
2023-05-19T11:06:38.765Z,99770.87
2023-05-19T11:11:52.214Z,99766.64
2023-05-19T11:16:58.159Z,99766.59
2023-05-19T11:22:13.210Z,99766.40
2023-05-19T11:27:19.334Z,99762.25
2023-05-19T11:32:22.789Z,99765.36
2023-05-19T11:37:24.626Z,99766.80
2023-05-19T11:42:26.295Z,99767.89
2023-05-19T11:47:28.351Z,99763.79
2023-05-19T11:52:31.009Z,99766.23
2023-05-19T11:57:32.902Z,99768.42
2023-05-19T12:02:36.335Z,99771.72
2023-05-19T12:07:39.514Z,99769.85
2023-05-19T12:12:45.113Z,99773.57
2023-05-19T12:17:50.407Z,99765.21
2023-05-19T12:22:53.177Z,99761.17
2023-05-19T12:27:59.483Z,99756.94
2023-05-19T12:33:02.118Z,99754.30
2023-05-19T12:38:07.533Z,99747.77
2023-05-19T12:43:20.140Z,99743.74
2023-05-19T12:48:22.967Z,99734.54
2023-05-19T12:53:27.925Z,99734.49
2023-05-19T12:58:34.466Z,99738.23
2023-05-19T13:03:42.950Z,99734.77
2023-05-19T13:08:47.309Z,99736.42
2023-05-19T13:13:49.068Z,99740.01
2023-05-19T13:18:51.565Z,99733.02
2023-05-19T13:23:53.407Z,99731.83
2023-05-19T13:28:55.138Z,99730.04
2023-05-19T13:33:57.047Z,99723.70
2023-05-19T13:38:58.867Z,99724.78
2023-05-19T13:44:00.818Z,99718.83
2023-05-19T13:49:02.674Z,99719.14
2023-05-19T13:54:05.144Z,99717.19
2023-05-19T13:59:07.193Z,99715.58
2023-05-19T14:04:10.582Z,99718.16
2023-05-19T14:09:13.192Z,99718.38
2023-05-19T14:14:15.104Z,99719.66
2023-05-19T14:19:17.388Z,99723.48
2023-05-19T14:24:20.190Z,99721.85
2023-05-19T14:29:21.911Z,99722.29
2023-05-19T14:34:23.708Z,99726.52
2023-05-19T14:39:25.596Z,99725.94
2023-05-19T14:44:32.867Z,99725.73
2023-05-19T14:49:34.717Z,99727.88
2023-05-19T14:54:36.568Z,99727.42
2023-05-19T14:59:39.161Z,99723.83
2023-05-19T15:04:41.189Z,99719.64
2023-05-19T15:09:42.938Z,99719.39
2023-05-19T15:14:44.631Z,99718.40
2023-05-19T15:19:46.698Z,99718.89
2023-05-19T15:24:48.498Z,99719.55
2023-05-19T15:29:50.241Z,99717.90
2023-05-19T15:34:52.041Z,99716.64
2023-05-19T15:39:55.056Z,99716.83
2023-05-19T15:44:57.122Z,99716.57
2023-05-19T15:49:58.826Z,99714.67
2023-05-19T15:55:00.637Z,99711.77
2023-05-19T16:00:02.449Z,99709.52
2023-05-19T16:05:07.882Z,99715.95
2023-05-19T16:10:09.891Z,99717.50
2023-05-19T16:15:11.664Z,99724.36
2023-05-19T16:20:13.607Z,99727.02
2023-05-19T16:25:15.484Z,99729.92
2023-05-19T16:30:17.300Z,99728.08
2023-05-19T16:35:19.574Z,99739.23
2023-05-19T16:40:21.311Z,99740.51
2023-05-19T16:45:23.136Z,99737.25
2023-05-19T16:50:24.894Z,99736.49
2023-05-19T16:55:26.930Z,99741.85
2023-05-19T17:00:29.887Z,99750.20
2023-05-19T17:05:32.053Z,99746.42
2023-05-19T17:10:34.267Z,99738.52
2023-05-19T17:15:36.452Z,99741.94
2023-05-19T17:20:38.223Z,99742.45
2023-05-19T17:25:39.982Z,99744.02
2023-05-19T17:30:42.342Z,99747.06
2023-05-19T17:35:44.254Z,99749.80
2023-05-19T17:40:46.018Z,99751.67
2023-05-19T17:45:47.746Z,99749.20
2023-05-19T17:50:49.525Z,99753.46
2023-05-19T17:55:56.044Z,99754.58
2023-05-19T18:00:57.983Z,99754.52
2023-05-19T18:06:00.599Z,99760.10
2023-05-19T18:11:02.930Z,99764.67
2023-05-19T18:16:04.818Z,99766.10
2023-05-19T18:21:06.733Z,99771.42
2023-05-19T18:26:08.490Z,99770.17
2023-05-19T18:31:15.786Z,99771.40
2023-05-19T18:36:17.659Z,99774.84
2023-05-19T18:41:19.495Z,99776.63
2023-05-19T18:46:21.493Z,99778.83
2023-05-19T18:51:23.545Z,99783.24
2023-05-19T18:56:27.254Z,99787.55
2023-05-19T19:01:29.080Z,99787.92
2023-05-19T19:06:31.285Z,99790.40
2023-05-19T19:11:33.067Z,99794.29
2023-05-19T19:16:35.122Z,99799.93
2023-05-19T19:21:37.088Z,99801.62
2023-05-19T19:26:38.880Z,99803.38
2023-05-19T19:31:40.746Z,99803.73
2023-05-19T19:36:43.851Z,99808.43
2023-05-19T19:41:45.611Z,99800.97
2023-05-19T19:46:47.344Z,99804.19
2023-05-19T19:51:49.655Z,99802.08
2023-05-19T19:56:51.425Z,99802.47
2023-05-19T20:01:53.399Z,99803.09
2023-05-19T20:06:55.382Z,99803.04
2023-05-19T20:11:57.207Z,99803.02
2023-05-19T20:16:59.013Z,99797.63
2023-05-19T20:22:02.718Z,99799.03
2023-05-19T20:27:04.559Z,99798.91
2023-05-19T20:32:06.900Z,99806.50
2023-05-19T20:37:08.759Z,99801.90
2023-05-19T20:42:11.258Z,99799.25
2023-05-19T20:47:13.114Z,99804.48
2023-05-19T20:52:18.639Z,99798.42
2023-05-19T20:57:21.012Z,99801.25
2023-05-19T21:02:22.773Z,99803.63
2023-05-19T21:07:25.089Z,99804.55
2023-05-19T21:12:33.948Z,99804.27
2023-05-19T21:17:41.733Z,99801.50
2023-05-19T21:22:43.959Z,99818.48
2023-05-19T21:27:46.464Z,99821.09
2023-05-19T21:32:48.265Z,99821.80
2023-05-19T21:37:50.295Z,99816.70
2023-05-19T21:42:54.515Z,99813.52
2023-05-19T21:47:58.626Z,99805.41
2023-05-19T21:53:02.756Z,99803.14
2023-05-19T21:58:04.612Z,99807.80
2023-05-19T22:03:06.712Z,99814.55
2023-05-19T22:08:08.609Z,99823.83
2023-05-19T22:13:10.752Z,99822.77
2023-05-19T22:18:12.624Z,99820.94
2023-05-19T22:23:14.552Z,99816.00
2023-05-19T22:28:16.450Z,99811.90
2023-05-19T22:33:18.227Z,99807.56
2023-05-19T22:38:19.974Z,99803.09
2023-05-19T22:43:21.693Z,99797.91
2023-05-19T22:48:23.368Z,99794.19
2023-05-19T22:53:25.281Z,99787.65
2023-05-19T22:58:27.051Z,99784.11
2023-05-19T23:03:28.751Z,99786.80
2023-05-19T23:08:31.469Z,99780.48
2023-05-19T23:13:53.704Z,99773.95
2023-05-19T23:18:55.543Z,99773.91
2023-05-19T23:23:57.500Z,99774.70
2023-05-19T23:28:59.299Z,99776.19
2023-05-19T23:34:01.289Z,99771.85
2023-05-19T23:39:06.447Z,99774.56
2023-05-19T23:44:09.188Z,99776.77
2023-05-19T23:49:12.394Z,99773.12
2023-05-19T23:54:14.094Z,99766.91
2023-05-19T23:59:15.830Z,99765.71
